Time;durP1;ratioP1;P1;durP2;ratioP2;P2;SDS_P1;SDS_P2;PMS_P1;PMS_P2;Temp;Humidity;BMP_temperature;BMP_pressure;BME280_temperature;BME280_humidity;BME280_pressure;Samples;Min_cycle;Max_cycle;Signal;HPM_P1;HPM_P2
2023/07/05 00:00:31;;;;;;;6.20;3.03;;;14.90;48.20;;;;;;5095695;28;20399;-64
2023/07/05 00:02:57;;;;;;;5.43;3.13;;;14.90;47.30;;;;;;5095745;28;20040;-63
2023/07/05 00:05:22;;;;;;;7.72;2.78;;;15.00;47.20;;;;;;5095612;28;20040;-63
2023/07/05 00:07:48;;;;;;;5.40;3.42;;;15.10;62.90;;;;;;5095385;28;20047;-63
2023/07/05 00:10:14;;;;;;;3.88;3.10;;;14.90;54.30;;;;;;5095543;28;20061;-63
2023/07/05 00:12:40;;;;;;;5.90;2.97;;;15.30;66.30;;;;;;5095507;28;20484;-64
2023/07/05 00:15:06;;;;;;;5.75;3.30;;;14.90;69.60;;;;;;5095387;28;20063;-63
2023/07/05 00:17:33;;;;;;;8.35;3.17;;;14.90;66.80;;;;;;5095446;28;20047;-63
2023/07/05 00:20:00;;;;;;;7.00;3.42;;;14.90;62.60;;;;;;5095432;28;20055;-63
2023/07/05 00:22:26;;;;;;;7.50;3.70;;;14.90;61.30;;;;;;5095306;28;20071;-63
2023/07/05 00:24:53;;;;;;;5.38;3.60;;;15.20;60.90;;;;;;5094916;28;20256;-63
2023/07/05 00:27:19;;;;;;;5.43;3.08;;;14.90;71.50;;;;;;5095170;28;20040;-63
2023/07/05 00:29:45;;;;;;;5.85;3.30;;;14.90;78.00;;;;;;5095160;28;20483;-63
2023/07/05 00:32:11;;;;;;;6.15;3.80;;;14.90;84.90;;;;;;5095194;28;20121;-63
2023/07/05 00:34:36;;;;;;;11.02;3.60;;;14.90;76.40;;;;;;5095047;28;20452;-63
2023/07/05 00:37:02;;;;;;;8.25;3.17;;;15.10;81.30;;;;;;5094934;28;20039;-63
2023/07/05 00:39:27;;;;;;;7.45;3.28;;;14.80;92.60;;;;;;5094994;28;20485;-64
2023/07/05 00:41:53;;;;;;;9.32;4.07;;;14.80;86.40;;;;;;5094926;28;20471;-64
2023/07/05 00:44:19;;;;;;;6.18;3.30;;;15.80;90.20;;;;;;5094700;28;20447;-64
2023/07/05 00:46:48;;;;;;;9.23;4.00;;;14.80;93.40;;;;;;5094909;28;20093;-64
2023/07/05 00:49:20;;;;;;;8.85;3.22;;;14.80;89.60;;;;;;5094781;28;20039;-63
2023/07/05 00:52:13;;;;;;;6.43;3.65;;;14.90;83.20;;;;;;5094113;28;20046;-63
2023/07/05 00:54:44;;;;;;;7.40;2.75;;;14.90;90.90;;;;;;5094729;28;20081;-63
2023/07/05 00:57:33;;;;;;;8.20;3.72;;;14.80;84.60;;;;;;5094749;28;20380;-63
2023/07/05 01:00:12;;;;;;;4.65;3.03;;;14.90;93.20;;;;;;5093094;28;20040;-63
2023/07/05 01:02:40;;;;;;;8.45;3.97;;;14.90;85.30;;;;;;5093003;28;20460;-64
2023/07/05 01:05:08;;;;;;;6.32;3.92;;;14.90;84.40;;;;;;5094593;28;20051;-63
2023/07/05 01:07:34;;;;;;;13.13;4.05;;;14.90;89.00;;;;;;5094421;28;20402;-63
2023/07/05 01:10:00;;;;;;;8.40;4.10;;;14.90;87.40;;;;;;5094519;28;20028;-64
2023/07/05 01:12:40;;;;;;;7.10;3.55;;;14.90;92.00;;;;;;5094447;28;20036;-63
2023/07/05 01:15:12;;;;;;;7.50;4.40;;;14.90;89.00;;;;;;5076244;28;20514;-63
2023/07/05 01:17:51;;;;;;;7.70;3.42;;;14.90;92.70;;;;;;5094189;28;20396;-64
2023/07/05 01:20:32;;;;;;;7.05;3.95;;;14.90;93.00;;;;;;5094159;28;20497;-63
2023/07/05 01:23:09;;;;;;;10.02;4.55;;;14.90;92.40;;;;;;5093986;28;20075;-63
2023/07/05 01:26:13;;;;;;;7.35;3.95;;;14.90;92.20;;;;;;5093550;28;20052;-63
2023/07/05 01:29:15;;;;;;;9.10;4.07;;;14.90;93.90;;;;;;5082917;28;20046;-63
2023/07/05 01:31:59;;;;;;;6.53;4.40;;;14.90;96.70;;;;;;5093961;28;20032;-63
2023/07/05 01:34:42;;;;;;;6.80;4.05;;;14.90;93.50;;;;;;5094003;28;20032;-63
2023/07/05 01:37:19;;;;;;;8.25;4.47;;;14.90;93.30;;;;;;5092419;28;20074;-63
2023/07/05 01:39:45;;;;;;;13.30;4.90;;;15.20;96.40;;;;;;5093895;28;20036;-64
2023/07/05 01:42:11;;;;;;;7.38;4.55;;;14.80;97.40;;;;;;5093801;28;20043;-64
2023/07/05 01:44:37;;;;;;;9.30;5.10;;;14.80;98.30;;;;;;5092337;28;20058;-63
2023/07/05 01:47:14;;;;;;;8.20;4.88;;;14.80;99.10;;;;;;5093417;28;20031;-63
2023/07/05 01:49:52;;;;;;;7.82;5.00;;;14.80;99.90;;;;;;5093704;28;20036;-64
2023/07/05 01:52:28;;;;;;;8.85;5.30;;;15.10;99.50;;;;;;5093495;28;20076;-63
2023/07/05 01:55:19;;;;;;;9.43;4.63;;;14.70;99.90;;;;;;5093593;28;20043;-64
2023/07/05 01:57:56;;;;;;;;;;;14.70;99.90;;;;;;5093937;28;20044;-64
2023/07/05 02:00:25;;;;;;;9.63;4.90;;;14.70;99.90;;;;;;5093277;28;20397;-64
2023/07/05 02:03:05;;;;;;;9.40;5.35;;;14.90;99.90;;;;;;5092651;28;20399;-64
2023/07/05 02:05:31;;;;;;;9.98;5.55;;;14.70;99.90;;;;;;5093054;28;20036;-64
2023/07/05 02:07:59;;;;;;;10.10;5.53;;;14.60;99.90;;;;;;5093359;28;20044;-64
2023/07/05 02:10:25;;;;;;;10.90;5.53;;;14.60;99.90;;;;;;5093011;28;20076;-64
2023/07/05 02:12:52;;;;;;;12.32;5.70;;;14.50;99.90;;;;;;5091765;28;20046;-64
2023/07/05 02:15:19;;;;;;;8.82;5.55;;;14.50;99.90;;;;;;5093326;28;20093;-63
2023/07/05 02:17:44;;;;;;;9.57;5.95;;;14.50;99.90;;;;;;5093248;28;20031;-64
2023/07/05 02:20:10;;;;;;;8.82;5.28;;;14.50;99.90;;;;;;5093186;28;20108;-64
2023/07/05 02:22:36;;;;;;;10.30;5.53;;;14.50;99.90;;;;;;5093155;28;20036;-64
2023/07/05 02:25:01;;;;;;;11.50;5.50;;;14.50;99.90;;;;;;5092827;28;20055;-64
2023/07/05 02:27:28;;;;;;;11.30;6.22;;;14.50;99.90;;;;;;5093062;28;20407;-63
2023/07/05 02:29:55;;;;;;;8.73;5.47;;;14.50;99.90;;;;;;5093060;28;20364;-63
2023/07/05 02:32:21;;;;;;;9.05;5.50;;;14.50;99.90;;;;;;5091902;28;20035;-64
2023/07/05 02:34:47;;;;;;;8.50;5.80;;;14.50;99.90;;;;;;5092939;28;20132;-64
2023/07/05 02:37:14;;;;;;;11.57;5.97;;;14.40;99.90;;;;;;5092809;28;20048;-64
2023/07/05 02:39:40;;;;;;;8.77;6.63;;;14.40;99.90;;;;;;5092544;28;20047;-63
2023/07/05 02:42:06;;;;;;;14.25;6.80;;;14.90;99.90;;;;;;5092799;28;20510;-63
2023/07/05 02:44:32;;;;;;;11.73;6.72;;;14.30;99.90;;;;;;5092784;28;20047;-64
2023/07/05 02:46:58;;;;;;;13.20;6.63;;;14.30;99.90;;;;;;5092648;28;20032;-63
2023/07/05 02:49:23;;;;;;;12.15;6.68;;;14.30;99.90;;;;;;5092722;28;20421;-63
2023/07/05 02:51:49;;;;;;;10.88;6.35;;;14.30;99.90;;;;;;5092449;28;20153;-64
2023/07/05 02:54:15;;;;;;;10.90;6.70;;;14.30;99.90;;;;;;5091414;28;20031;-63
2023/07/05 02:56:40;;;;;;;9.70;6.05;;;14.30;99.90;;;;;;5092778;28;20044;-63
2023/07/05 02:59:06;;;;;;;11.23;6.70;;;14.20;99.90;;;;;;5092687;28;20115;-64
2023/07/05 03:01:31;;;;;;;13.18;6.68;;;14.30;99.90;;;;;;5092609;28;20476;-64
2023/07/05 03:03:57;;;;;;;10.85;7.03;;;14.30;99.90;;;;;;5092640;28;20040;-63
2023/07/05 03:06:22;;;;;;;15.13;7.40;;;14.30;99.90;;;;;;5092551;28;20119;-63
2023/07/05 03:08:48;;;;;;;12.00;7.25;;;14.30;99.90;;;;;;5107949;28;20043;-63
2023/07/05 03:11:14;;;;;;;10.65;7.15;;;14.20;99.90;;;;;;5092600;28;20078;-63
2023/07/05 03:13:39;;;;;;;8.98;6.75;;;14.30;99.90;;;;;;5107958;28;20043;-64
2023/07/05 03:16:05;;;;;;;13.88;7.53;;;14.80;99.90;;;;;;5096061;28;20376;-63
2023/07/05 03:18:32;;;;;;;13.30;7.53;;;14.20;99.90;;;;;;5096272;28;20032;-63
2023/07/05 03:20:58;;;;;;;12.32;7.18;;;14.20;99.90;;;;;;5096214;28;20036;-63
2023/07/05 03:23:23;;;;;;;10.43;7.63;;;14.20;99.90;;;;;;5096489;28;20084;-63
2023/07/05 03:25:57;;;;;;;12.48;8.35;;;14.20;99.90;;;;;;5095826;28;20055;-63
2023/07/05 03:28:29;;;;;;;11.38;7.47;;;14.20;99.90;;;;;;5096118;28;20186;-63
2023/07/05 03:31:01;;;;;;;15.98;8.05;;;14.70;99.90;;;;;;5095994;28;20124;-63
2023/07/05 03:33:27;;;;;;;10.88;7.47;;;14.30;99.90;;;;;;5096335;28;20039;-63
2023/07/05 03:35:57;;;;;;;12.43;7.95;;;14.30;99.90;;;;;;5096224;28;20384;-64
2023/07/05 03:38:25;;;;;;;11.38;7.55;;;14.30;99.90;;;;;;5096215;28;20129;-63
2023/07/05 03:41:01;;;;;;;11.23;7.53;;;14.30;99.90;;;;;;5096076;28;20043;-63
2023/07/05 03:43:29;;;;;;;11.85;7.22;;;14.30;99.90;;;;;;5095795;28;20051;-64
2023/07/05 03:45:57;;;;;;;12.10;7.18;;;14.40;99.90;;;;;;5096024;28;20043;-63
2023/07/05 03:48:23;;;;;;;11.05;6.80;;;14.30;99.90;;;;;;5095663;28;20044;-63
2023/07/05 03:50:49;;;;;;;10.15;7.07;;;14.40;99.90;;;;;;5095710;28;20032;-63
2023/07/05 03:53:14;;;;;;;11.57;7.47;;;14.40;99.90;;;;;;5095770;28;20028;-63
2023/07/05 03:55:40;;;;;;;11.13;7.65;;;14.40;99.90;;;;;;5095803;28;20032;-63
2023/07/05 03:58:05;;;;;;;9.98;7.03;;;14.70;99.90;;;;;;5095791;28;20040;-63
2023/07/05 04:00:31;;;;;;;9.80;7.20;;;14.40;99.90;;;;;;5095852;28;20491;-63
2023/07/05 04:02:56;;;;;;;13.00;7.15;;;14.40;99.90;;;;;;5095760;28;20044;-63
2023/07/05 04:05:23;;;;;;;11.35;7.30;;;14.40;99.90;;;;;;5095676;28;20540;-64
2023/07/05 04:07:48;;;;;;;12.77;7.72;;;14.40;99.90;;;;;;5094561;28;20036;-64
2023/07/05 04:10:14;;;;;;;11.63;7.00;;;14.40;99.90;;;;;;5095475;28;20051;-64
2023/07/05 04:12:39;;;;;;;10.43;7.50;;;14.50;99.90;;;;;;5095564;28;20040;-63
2023/07/05 04:15:05;;;;;;;10.88;7.15;;;14.50;99.90;;;;;;5095541;28;20064;-64
2023/07/05 04:17:31;;;;;;;12.48;6.53;;;14.50;99.90;;;;;;5111641;28;20044;-64
2023/07/05 04:19:57;;;;;;;10.38;6.63;;;14.70;99.90;;;;;;5095346;28;20039;-63
2023/07/05 04:22:23;;;;;;;11.75;7.80;;;14.60;99.90;;;;;;5095146;28;20548;-63
2023/07/05 04:24:48;;;;;;;9.02;6.68;;;14.70;99.90;;;;;;5094987;28;20056;-63
2023/07/05 04:27:15;;;;;;;10.52;6.90;;;14.80;99.90;;;;;;5093918;28;20345;-63
2023/07/05 04:29:41;;;;;;;10.98;7.13;;;14.80;99.90;;;;;;5095252;28;20063;-63
2023/07/05 04:32:07;;;;;;;10.95;6.45;;;14.80;99.90;;;;;;5076824;28;20044;-63
2023/07/05 04:34:33;;;;;;;11.30;6.90;;;14.90;99.90;;;;;;5095131;28;20082;-63
2023/07/05 04:36:58;;;;;;;9.32;6.65;;;14.90;99.90;;;;;;5095066;28;20503;-63
2023/07/05 04:39:24;;;;;;;9.18;6.07;;;15.30;99.90;;;;;;5094994;28;20395;-63
2023/07/05 04:41:50;;;;;;;12.45;6.63;;;14.90;99.90;;;;;;5110448;28;20044;-63
2023/07/05 04:44:15;;;;;;;7.93;5.75;;;15.00;99.90;;;;;;5094933;28;20047;-63
2023/07/05 04:46:41;;;;;;;11.68;6.20;;;15.00;99.90;;;;;;5094455;28;20049;-63
2023/07/05 04:49:06;;;;;;;9.80;5.55;;;15.00;99.90;;;;;;5094881;28;20356;-63
2023/07/05 04:51:32;;;;;;;7.18;5.45;;;14.60;99.90;;;;;;5094879;28;20394;-63
2023/07/05 04:53:58;;;;;;;8.95;5.65;;;15.00;99.90;;;;;;5094816;28;20093;-63
2023/07/05 04:56:24;;;;;;;8.32;4.90;;;15.00;99.90;;;;;;5110420;28;20078;-63
2023/07/05 04:58:49;;;;;;;9.52;4.88;;;15.00;99.90;;;;;;5094644;28;20072;-63
2023/07/05 05:01:15;;;;;;;8.55;4.50;;;14.60;99.90;;;;;;5094617;28;20043;-63
2023/07/05 05:03:41;;;;;;;6.63;3.78;;;14.90;99.90;;;;;;5094565;28;20035;-63
2023/07/05 05:06:06;;;;;;;4.43;3.25;;;14.90;99.90;;;;;;5094402;28;20067;-63
2023/07/05 05:08:32;;;;;;;3.83;2.95;;;14.70;99.90;;;;;;5094499;28;20040;-63
2023/07/05 05:11:00;;;;;;;4.32;3.10;;;14.60;99.90;;;;;;5094472;28;20384;-63
2023/07/05 05:13:29;;;;;;;7.78;3.25;;;14.50;99.90;;;;;;5094361;28;20036;-63
2023/07/05 05:15:55;;;;;;;6.35;3.35;;;14.40;99.90;;;;;;5094391;28;20036;-63
2023/07/05 05:18:22;;;;;;;5.03;3.65;;;14.10;99.90;;;;;;5094318;28;20075;-63
2023/07/05 05:20:48;;;;;;;7.78;3.50;;;14.20;99.90;;;;;;5093872;28;20052;-63
2023/07/05 05:23:14;;;;;;;5.05;3.58;;;13.90;99.90;;;;;;5093915;28;20089;-63
2023/07/05 05:25:44;;;;;;;6.40;3.60;;;13.90;99.90;;;;;;5093586;28;20055;-63
2023/07/05 05:28:10;;;;;;;4.35;3.33;;;13.80;99.90;;;;;;5094120;28;20048;-63
2023/07/05 05:30:36;;;;;;;4.68;2.95;;;13.80;99.90;;;;;;5094068;28;20387;-63
2023/07/05 05:33:05;;;;;;;5.88;3.85;;;13.80;99.90;;;;;;5092825;28;20039;-63
2023/07/05 05:35:32;;;;;;;3.63;3.08;;;13.80;99.90;;;;;;5094023;28;20036;-63
2023/07/05 05:37:57;;;;;;;4.53;3.55;;;13.90;99.90;;;;;;5092653;28;20036;-62
2023/07/05 05:40:23;;;;;;;5.97;3.75;;;13.90;99.90;;;;;;5093888;28;20061;-62
2023/07/05 05:42:48;;;;;;;6.68;4.03;;;14.00;99.90;;;;;;5093786;28;20040;-63
2023/07/05 05:45:14;;;;;;;8.40;3.78;;;14.00;99.90;;;;;;5092583;28;20502;-63
2023/07/05 05:47:40;;;;;;;5.68;3.88;;;14.00;99.90;;;;;;5093727;28;20537;-63
2023/07/05 05:50:06;;;;;;;5.63;3.83;;;14.10;99.90;;;;;;5109523;28;20084;-63
2023/07/05 05:52:33;;;;;;;4.90;3.33;;;14.20;99.90;;;;;;5093458;28;20095;-63
2023/07/05 05:54:58;;;;;;;5.13;3.55;;;14.30;99.90;;;;;;5093739;28;20044;-64
2023/07/05 05:57:24;;;;;;;5.07;3.35;;;14.30;99.90;;;;;;5093627;28;20051;-63
2023/07/05 05:59:49;;;;;;;5.07;3.58;;;14.30;99.90;;;;;;5093599;28;20113;-63
2023/07/05 06:02:16;;;;;;;5.20;3.22;;;14.30;99.90;;;;;;5093511;28;20044;-62
2023/07/05 06:04:42;;;;;;;6.05;3.95;;;14.40;99.90;;;;;;5092225;28;20040;-63
2023/07/05 06:07:07;;;;;;;6.68;3.90;;;14.30;99.90;;;;;;5093381;28;20402;-63
2023/07/05 06:09:46;;;;;;;4.88;3.20;;;14.40;99.90;;;;;;5093362;28;20036;-63
2023/07/05 06:12:12;;;;;;;5.40;3.55;;;14.40;99.90;;;;;;5093420;28;20114;-63
2023/07/05 06:14:38;;;;;;;4.05;3.25;;;14.40;99.90;;;;;;5092971;28;20162;-63
2023/07/05 06:17:04;;;;;;;6.00;3.55;;;14.40;99.90;;;;;;5093416;28;20036;-63
2023/07/05 06:19:30;;;;;;;5.00;3.05;;;14.40;99.90;;;;;;5093259;28;20047;-63
2023/07/05 06:21:55;;;;;;;4.47;2.95;;;14.70;99.90;;;;;;5093244;28;20048;-63
2023/07/05 06:24:21;;;;;;;11.38;3.00;;;14.60;99.90;;;;;;5092928;28;20047;-62
2023/07/05 06:26:46;;;;;;;5.43;3.17;;;14.60;99.90;;;;;;5093009;28;20044;-63
2023/07/05 06:29:12;;;;;;;5.07;3.00;;;14.70;99.90;;;;;;5093141;28;20042;-63
2023/07/05 06:31:38;;;;;;;6.32;3.45;;;14.80;99.90;;;;;;5092961;28;20040;-63
2023/07/05 06:34:03;;;;;;;6.10;3.55;;;14.80;99.90;;;;;;5092983;28;20040;-63
2023/07/05 06:36:29;;;;;;;4.85;3.22;;;15.10;99.90;;;;;;5092792;28;20483;-63
2023/07/05 06:38:54;;;;;;;4.25;2.80;;;15.10;99.90;;;;;;5092756;28;20048;-63
2023/07/05 06:41:20;;;;;;;6.00;2.95;;;15.40;99.90;;;;;;5093015;28;20042;-63
2023/07/05 06:43:46;;;;;;;5.00;2.97;;;15.40;99.90;;;;;;5092904;28;20491;-63
2023/07/05 06:46:11;;;;;;;5.88;2.88;;;15.40;99.90;;;;;;5108384;28;20040;-63
2023/07/05 06:48:37;;;;;;;8.75;2.92;;;15.50;99.90;;;;;;5092589;28;20044;-63
2023/07/05 06:51:03;;;;;;;4.93;3.10;;;15.60;99.90;;;;;;5092197;28;20502;-63
2023/07/05 06:53:28;;;;;;;3.78;2.78;;;15.60;99.70;;;;;;5092909;28;20039;-65
2023/07/05 06:55:54;;;;;;;7.40;3.05;;;15.50;99.60;;;;;;5092466;28;20036;-64
2023/07/05 06:58:20;;;;;;;6.22;3.17;;;15.60;98.00;;;;;;5092834;28;20040;-64
2023/07/05 07:00:47;;;;;;;5.95;2.90;;;15.60;99.90;;;;;;5092617;28;20117;-64
2023/07/05 07:03:13;;;;;;;12.45;3.30;;;15.70;97.60;;;;;;5092736;28;20499;-64
2023/07/05 07:05:38;;;;;;;6.75;3.30;;;15.90;98.80;;;;;;5092698;28;20036;-64
2023/07/05 07:08:04;;;;;;;7.90;3.28;;;16.00;98.70;;;;;;5092344;28;20032;-64
2023/07/05 07:10:30;;;;;;;4.13;2.75;;;16.00;93.10;;;;;;5092668;28;20036;-64
2023/07/05 07:12:55;;;;;;;6.85;2.83;;;16.00;95.60;;;;;;5092589;28;20398;-64
2023/07/05 07:15:21;;;;;;;7.60;2.92;;;15.90;94.00;;;;;;5092325;28;20385;-64
2023/07/05 07:17:47;;;;;;;5.32;2.95;;;15.70;90.60;;;;;;5092883;28;20096;-64
2023/07/05 07:20:14;;;;;;;4.68;2.60;;;15.70;93.40;;;;;;5091266;28;20147;-64
2023/07/05 07:22:40;;;;;;;6.43;3.35;;;15.70;92.20;;;;;;5092540;28;20040;-64
2023/07/05 07:25:07;;;;;;;5.80;2.67;;;15.80;92.70;;;;;;5092252;28;20565;-65
2023/07/05 07:27:32;;;;;;;5.10;2.90;;;15.90;92.90;;;;;;5092199;28;20055;-64
2023/07/05 07:29:58;;;;;;;6.72;3.00;;;16.10;87.80;;;;;;5092267;28;20455;-64
2023/07/05 07:32:24;;;;;;;5.35;2.88;;;16.00;86.60;;;;;;5092285;28;20039;-64
2023/07/05 07:34:54;;;;;;;8.85;2.95;;;16.20;91.20;;;;;;5092193;28;20137;-64
2023/07/05 07:37:19;;;;;;;3.77;2.63;;;16.00;90.90;;;;;;5092522;28;20032;-63
2023/07/05 07:39:45;;;;;;;4.43;2.60;;;15.80;93.80;;;;;;5092404;28;20371;-63
2023/07/05 07:42:10;;;;;;;4.70;2.75;;;15.60;96.80;;;;;;5092458;28;20492;-64
2023/07/05 07:44:36;;;;;;;3.47;2.20;;;15.40;97.50;;;;;;5092408;28;20097;-64
2023/07/05 07:47:02;;;;;;;4.88;2.67;;;15.30;99.90;;;;;;5090763;28;20596;-63
2023/07/05 07:49:28;;;;;;;5.47;2.55;;;15.20;99.90;;;;;;5092317;28;20081;-63
2023/07/05 07:51:53;;;;;;;7.00;2.55;;;15.10;99.90;;;;;;5092320;28;20047;-63
2023/07/05 07:54:28;;;;;;;6.38;2.67;;;15.00;99.90;;;;;;5092149;28;20090;-63
2023/07/05 07:56:55;;;;;;;5.53;2.60;;;14.90;99.90;;;;;;5092204;28;20044;-63
2023/07/05 07:59:21;;;;;;;5.13;3.17;;;14.40;99.90;;;;;;5090727;28;20109;-64
2023/07/05 08:01:47;;;;;;;4.45;2.00;;;14.60;99.90;;;;;;5093089;28;20036;-65
2023/07/05 08:04:14;;;;;;;3.45;1.98;;;13.90;99.90;;;;;;5095773;28;20044;-65
2023/07/05 08:06:41;;;;;;;2.83;2.05;;;13.80;99.90;;;;;;5095644;28;20036;-65
2023/07/05 08:09:09;;;;;;;2.53;1.20;;;13.60;99.90;;;;;;5095650;28;20039;-65
2023/07/05 08:11:36;;;;;;;2.67;1.20;;;13.50;99.90;;;;;;5095766;28;20141;-64
2023/07/05 08:14:01;;;;;;;0.95;0.70;;;13.40;99.90;;;;;;5095750;28;20036;-65
2023/07/05 08:16:27;;;;;;;3.08;0.90;;;13.20;99.90;;;;;;5095327;28;20605;-65
2023/07/05 08:18:53;;;;;;;1.63;0.95;;;13.00;99.90;;;;;;5095554;28;20036;-65
2023/07/05 08:21:19;;;;;;;2.28;1.02;;;12.80;99.90;;;;;;5095333;28;20039;-65
2023/07/05 08:23:45;;;;;;;2.50;1.08;;;12.70;99.90;;;;;;5094934;28;20065;-64
2023/07/05 08:26:12;;;;;;;2.38;1.00;;;12.70;99.90;;;;;;5095387;28;20051;-64
2023/07/05 08:28:38;;;;;;;0.98;0.80;;;12.70;99.90;;;;;;5095337;28;20047;-65
2023/07/05 08:31:05;;;;;;;2.15;0.80;;;12.60;99.90;;;;;;5095118;28;20438;-65
2023/07/05 08:33:32;;;;;;;3.28;0.85;;;12.50;99.90;;;;;;5095247;28;20446;-65
2023/07/05 08:36:15;;;;;;;0.93;0.70;;;12.40;99.90;;;;;;5095219;28;20105;-64
2023/07/05 08:38:49;;;;;;;1.33;0.80;;;12.40;99.90;;;;;;5095155;28;20136;-64
2023/07/05 08:41:27;;;;;;;1.70;0.80;;;12.30;99.90;;;;;;5095109;28;20067;-65
2023/07/05 08:44:15;;;;;;;1.98;1.05;;;12.30;99.90;;;;;;5095110;28;20044;-64
2023/07/05 08:46:43;;;;;;;1.20;0.90;;;12.30;99.90;;;;;;5094851;28;20040;-64
2023/07/05 08:49:21;;;;;;;2.42;0.80;;;13.00;99.90;;;;;;5094910;28;20048;-63
2023/07/05 08:51:46;;;;;;;1.58;0.70;;;12.30;99.90;;;;;;5094478;28;20119;-64
2023/07/05 08:54:16;;;;;;;2.50;1.20;;;12.30;99.90;;;;;;5094871;28;20478;-64
2023/07/05 08:56:48;;;;;;;0.73;0.63;;;12.20;99.90;;;;;;5094778;28;20054;-63
2023/07/05 08:59:26;;;;;;;1.77;0.90;;;12.30;99.90;;;;;;5094739;28;20115;-64
2023/07/05 09:01:55;;;;;;;1.52;1.05;;;12.30;99.90;;;;;;5094372;28;20051;-63
2023/07/05 09:04:25;;;;;;;4.30;1.10;;;12.30;99.90;;;;;;5094682;28;20040;-64
2023/07/05 09:06:56;;;;;;;2.25;1.00;;;12.30;99.90;;;;;;5094531;28;20040;-63
2023/07/05 09:09:24;;;;;;;;;;;12.30;99.90;;;;;;5093733;28;20113;-63
2023/07/05 09:12:12;;;;;;;1.13;0.85;;;12.20;99.90;;;;;;5093879;28;19975;-63
2023/07/05 09:15:02;;;;;;;1.65;0.98;;;12.20;99.90;;;;;;5094202;28;20119;-64
2023/07/05 09:17:51;;;;;;;1.90;1.05;;;12.20;99.90;;;;;;5092863;28;20046;-63
2023/07/05 09:20:41;;;;;;;2.22;0.95;;;12.20;99.90;;;;;;5094508;28;20040;-64
2023/07/05 09:23:17;;;;;;;5.32;1.23;;;12.20;99.90;;;;;;5094323;28;20444;-64
2023/07/05 09:25:48;;;;;;;2.22;1.10;;;12.20;99.90;;;;;;5093717;28;20123;-63
2023/07/05 09:28:22;;;;;;;1.85;0.90;;;12.20;99.90;;;;;;5094109;28;20062;-64
2023/07/05 09:30:48;;;;;;;2.95;1.05;;;12.30;99.90;;;;;;5094088;28;20124;-63
2023/07/05 09:33:22;;;;;;;1.23;0.70;;;12.30;99.90;;;;;;5092737;28;20395;-65
2023/07/05 09:35:49;;;;;;;2.85;0.98;;;12.40;99.90;;;;;;5093918;28;20097;-64
2023/07/05 09:38:27;;;;;;;1.60;0.95;;;12.40;99.90;;;;;;5093605;28;20040;-62
2023/07/05 09:41:15;;;;;;;4.00;1.10;;;12.50;99.90;;;;;;5093907;28;20035;-63
2023/07/05 09:43:41;;;;;;;3.20;1.35;;;12.50;99.90;;;;;;5093450;28;20036;-65
2023/07/05 09:46:27;;;;;;;4.35;1.40;;;12.50;99.90;;;;;;5093498;28;20437;-63
2023/07/05 09:48:54;;;;;;;5.50;1.55;;;12.60;99.90;;;;;;5092309;28;20074;-63
2023/07/05 09:51:21;;;;;;;4.15;1.35;;;12.50;99.90;;;;;;5093722;28;20476;-64
2023/07/05 09:53:49;;;;;;;2.60;1.17;;;12.60;99.90;;;;;;5093534;28;20106;-63
2023/07/05 09:56:27;;;;;;;6.10;1.67;;;12.60;99.90;;;;;;5092208;28;20052;-64
2023/07/05 09:59:04;;;;;;;3.80;1.80;;;12.70;99.90;;;;;;5093499;28;20102;-63
2023/07/05 10:01:30;;;;;;;5.75;1.40;;;12.70;99.90;;;;;;5093350;28;20043;-62
2023/07/05 10:04:00;;;;;;;3.08;1.30;;;12.90;99.90;;;;;;5091920;28;20165;-63
2023/07/05 10:06:27;;;;;;;6.40;1.60;;;13.00;99.90;;;;;;5092003;28;20047;-63
2023/07/05 10:08:54;;;;;;;6.25;1.30;;;13.10;99.90;;;;;;5093406;28;20044;-64
2023/07/05 10:11:27;;;;;;;2.15;0.90;;;13.20;99.90;;;;;;5093172;28;20120;-64
2023/07/05 10:14:10;;;;;;;4.28;1.45;;;13.40;99.90;;;;;;5093348;28;20118;-63
2023/07/05 10:16:54;;;;;;;5.03;1.42;;;13.40;99.90;;;;;;5093286;28;20044;-63
2023/07/05 10:19:23;;;;;;;3.78;1.23;;;13.50;99.90;;;;;;5092141;28;20040;-64
2023/07/05 10:21:54;;;;;;;4.07;1.55;;;13.60;99.90;;;;;;5093277;28;20047;-63
2023/07/05 10:24:20;;;;;;;3.33;1.38;;;13.60;99.90;;;;;;5092251;28;20578;-63
2023/07/05 10:27:16;;;;;;;3.53;1.50;;;13.70;99.90;;;;;;5091635;28;20203;-64
2023/07/05 10:29:41;;;;;;;5.38;1.42;;;13.70;99.90;;;;;;5093159;28;20032;-65
2023/07/05 10:32:18;;;;;;;7.97;1.77;;;13.80;99.90;;;;;;5093051;28;20502;-63
2023/07/05 10:34:43;;;;;;;4.32;1.95;;;13.80;99.90;;;;;;5091511;28;20157;-63
2023/07/05 10:37:33;;;;;;;5.15;1.63;;;13.90;99.90;;;;;;5093089;28;20123;-63
2023/07/05 10:40:03;;;;;;;7.35;2.03;;;14.00;99.90;;;;;;5092737;28;20036;-62
2023/07/05 10:42:30;;;;;;;8.73;2.08;;;14.60;99.90;;;;;;5093005;28;20036;-63
2023/07/05 10:44:57;;;;;;;3.20;1.58;;;14.00;99.90;;;;;;5092633;28;20040;-62
2023/07/05 10:47:24;;;;;;;6.97;2.00;;;14.10;99.90;;;;;;5092775;28;20044;-62
2023/07/05 10:49:51;;;;;;;5.18;1.75;;;14.10;99.90;;;;;;5092833;28;20036;-62
2023/07/05 10:52:18;;;;;;;5.95;2.05;;;14.20;99.90;;;;;;5092853;28;20432;-62
2023/07/05 10:55:05;;;;;;;4.50;2.00;;;14.30;99.90;;;;;;5092752;28;20071;-63
2023/07/05 10:57:44;;;;;;;6.07;1.70;;;14.30;99.90;;;;;;5092428;28;20043;-62
2023/07/05 11:00:37;;;;;;;7.10;1.80;;;14.40;99.90;;;;;;5092811;28;20403;-62
2023/07/05 11:03:42;;;;;;;11.02;2.22;;;14.50;99.90;;;;;;5092773;28;20043;-62
2023/07/05 11:06:09;;;;;;;5.65;1.80;;;14.50;99.90;;;;;;5092666;28;20131;-62
2023/07/05 11:08:38;;;;;;;4.78;1.92;;;14.70;99.90;;;;;;5091120;28;20032;-62
2023/07/05 11:11:19;;;;;;;7.60;2.35;;;14.80;99.90;;;;;;5092660;28;20040;-63
2023/07/05 11:13:47;;;;;;;5.28;2.13;;;14.90;99.90;;;;;;5092701;28;20119;-63
2023/07/05 11:16:26;;;;;;;7.72;1.88;;;14.80;99.90;;;;;;5092613;28;20051;-62
2023/07/05 11:19:00;;;;;;;4.47;2.00;;;15.10;99.90;;;;;;5092320;28;20044;-63
2023/07/05 11:21:36;;;;;;;8.82;2.13;;;15.00;99.90;;;;;;5092549;28;20092;-63
2023/07/05 11:24:04;;;;;;;5.28;1.60;;;;;;;;;;5092293;28;20044;-63
2023/07/05 11:26:31;;;;;;;3.50;1.75;;;;;;;;;;5092456;28;20051;-62
2023/07/05 11:28:57;;;;;;;4.70;1.80;;;;;;;;;;5092345;28;20040;-63
2023/07/05 11:31:29;;;;;;;6.93;1.60;;;;;;;;;;5092445;28;20047;-63
2023/07/05 11:34:14;;;;;;;3.40;1.40;;;;;;;;;;5091190;28;20047;-63
2023/07/05 11:36:40;;;;;;;5.28;1.33;;;14.70;99.90;;;;;;5095248;28;20036;-64
2023/07/05 11:39:07;;;;;;;4.88;1.50;;;14.50;99.90;;;;;;5096257;28;20040;-65
2023/07/05 11:41:34;;;;;;;3.67;1.17;;;14.10;99.90;;;;;;5096155;28;20123;-64
2023/07/05 11:44:21;;;;;;;2.85;1.27;;;14.30;99.90;;;;;;5095967;28;20053;-63
2023/07/05 11:46:48;;;;;;;2.33;1.23;;;14.00;99.90;;;;;;5095967;28;20078;-63
2023/07/05 11:49:14;;;;;;;4.13;1.58;;;13.70;99.90;;;;;;5094661;28;20040;-63
2023/07/05 11:51:41;;;;;;;2.78;1.20;;;13.90;99.90;;;;;;5095824;28;20429;-63
2023/07/05 11:54:08;;;;;;;3.42;1.25;;;13.10;99.90;;;;;;5095656;28;20499;-64
2023/07/05 11:56:38;;;;;;;1.88;1.08;;;13.20;99.90;;;;;;5095729;28;20040;-64
2023/07/05 11:59:07;;;;;;;2.88;1.30;;;13.50;99.90;;;;;;5095917;28;20054;-63
2023/07/05 12:01:37;;;;;;;3.10;1.10;;;13.20;99.90;;;;;;5094584;28;20407;-63
2023/07/05 12:04:10;;;;;;;1.58;0.80;;;13.10;99.90;;;;;;5095581;28;20040;-63
2023/07/05 12:06:40;;;;;;;2.20;1.10;;;13.20;99.90;;;;;;5095721;28;20047;-63
2023/07/05 12:09:18;;;;;;;3.00;0.95;;;13.10;99.90;;;;;;5095737;28;20039;-63
2023/07/05 12:11:53;;;;;;;2.22;0.93;;;13.20;99.90;;;;;;5095551;28;20497;-64
2023/07/05 12:14:18;;;;;;;4.28;0.98;;;13.00;99.90;;;;;;5095424;28;20043;-63
2023/07/05 12:16:44;;;;;;;5.72;1.25;;;13.10;99.90;;;;;;5095541;28;20040;-64
2023/07/05 12:19:27;;;;;;;2.38;1.27;;;13.00;99.90;;;;;;5095656;28;20051;-65
2023/07/05 12:21:55;;;;;;;3.47;1.05;;;13.10;99.90;;;;;;5095025;28;20036;-64
2023/07/05 12:24:21;;;;;;;3.55;1.33;;;12.80;99.90;;;;;;5095212;28;20095;-63
2023/07/05 12:26:47;;;;;;;5.45;1.40;;;12.90;99.90;;;;;;5095311;28;20051;-63
2023/07/05 12:29:31;;;;;;;4.85;1.30;;;12.80;99.90;;;;;;5095394;28;20052;-63
2023/07/05 12:32:07;;;;;;;5.57;1.60;;;13.20;99.90;;;;;;5095303;28;20394;-62
2023/07/05 12:34:33;;;;;;;2.72;1.33;;;12.80;99.90;;;;;;5095066;28;20042;-62
2023/07/05 12:36:59;;;;;;;3.00;1.20;;;12.80;99.90;;;;;;5095125;28;20450;-63
2023/07/05 12:39:25;;;;;;;3.20;1.50;;;12.90;99.90;;;;;;5095340;28;20487;-62
2023/07/05 12:42:08;;;;;;;3.30;1.33;;;12.90;99.90;;;;;;5095113;28;20032;-62
2023/07/05 12:44:35;;;;;;;5.15;1.42;;;12.90;99.90;;;;;;5095120;28;20043;-62
2023/07/05 12:47:12;;;;;;;2.67;1.60;;;13.00;99.90;;;;;;5092591;28;20058;-62
2023/07/05 12:49:37;;;;;;;4.68;1.33;;;13.00;99.90;;;;;;5094540;28;20044;-62
2023/07/05 12:52:03;;;;;;;4.18;1.60;;;13.10;99.90;;;;;;5093282;28;20039;-62
2023/07/05 12:54:29;;;;;;;8.00;1.80;;;13.10;99.90;;;;;;5094797;28;20065;-63
2023/07/05 12:56:56;;;;;;;7.45;1.98;;;13.80;99.90;;;;;;5094746;28;20040;-62
2023/07/05 12:59:37;;;;;;;4.05;1.63;;;13.20;99.90;;;;;;5094749;28;20050;-62